CSHVD LPPT-LPCS
Flight info
| Callsign | CSHVD |
|---|---|
| Flight time | 0h -1m |
| Altitude | 2000 |
| Route | IGALI DCT ODIVL DCT BELAS DCT DELTA |
| Aircraft | AS50/L-VGD/C |
Departure
| Time | 2026-04-21 14:27 |
|---|---|
| Airport | Lisbon Humberto Delgado Airport (LPPT) |
Arrival
| Time | 2026-04-21 14:26 |
|---|---|
| Airport | Cascais Airport (LPCS) |
| Time | Latitude | Longitude | Altitude | Speed | Heading |
|---|---|---|---|---|---|
| 2026-04-21 13:59 | 38.78095 | -9.12865 | 375 ft | 0 kts | 303° |
| 2026-04-21 14:22 | 38.78093 | -9.12858 | 382 ft | 2 kts | 288° |
| 2026-04-21 14:22 | 38.78082 | -9.12828 | 391 ft | 6 kts | 185° |
| 2026-04-21 14:22 | 38.78049 | -9.12786 | 407 ft | 4 kts | 218° |
| 2026-04-21 14:22 | 38.77980 | -9.12858 | 409 ft | 13 kts | 213° |
| 2026-04-21 14:23 | 38.77932 | -9.12892 | 385 ft | 0 kts | 210° |
| 2026-04-21 14:23 | 38.77938 | -9.12879 | 393 ft | 2 kts | 206° |
| 2026-04-21 14:23 | 38.77924 | -9.12889 | 411 ft | 7 kts | 214° |
| 2026-04-21 14:23 | 38.77862 | -9.12946 | 414 ft | 10 kts | 217° |
| 2026-04-21 14:24 | 38.77794 | -9.13012 | 402 ft | 11 kts | 238° |
| 2026-04-21 14:24 | 38.77771 | -9.13080 | 391 ft | 6 kts | 253° |
| 2026-04-21 14:24 | 38.77761 | -9.13130 | 391 ft | 8 kts | 261° |
| 2026-04-21 14:24 | 38.77750 | -9.13219 | 391 ft | 10 kts | 256° |
| 2026-04-21 14:25 | 38.77732 | -9.13300 | 422 ft | 11 kts | 296° |
| 2026-04-21 14:25 | 38.77792 | -9.13347 | 402 ft | 12 kts | 350° |
| 2026-04-21 14:25 | 38.77873 | -9.13371 | 398 ft | 12 kts | 348° |
| 2026-04-21 14:25 | 38.77933 | -9.13395 | 400 ft | 2 kts | 276° |
| 2026-04-21 14:26 | 38.77934 | -9.13444 | 406 ft | 8 kts | 258° |
| 2026-04-21 14:26 | 38.77881 | -9.13491 | 397 ft | 7 kts | 258° |
| 2026-04-21 14:26 | 38.77953 | -9.13546 | 406 ft | 23 kts | 354° |
| 2026-04-21 14:26 | 38.78093 | -9.13592 | 409 ft | 21 kts | 251° |
| 2026-04-21 14:27 | 38.77940 | -9.13694 | 551 ft | 48 kts | 211° |
| 2026-04-21 14:27 | 38.77522 | -9.13937 | 654 ft | 77 kts | 208° |
| 2026-04-21 14:27 | 38.77007 | -9.14174 | 856 ft | 83 kts | 207° |
| 2026-04-21 14:27 | 38.76450 | -9.14510 | 1010 ft | 89 kts | 214° |
| 2026-04-21 14:28 | 38.75880 | -9.14943 | 1097 ft | 98 kts | 221° |
| 2026-04-21 14:28 | 38.75418 | -9.15585 | 1188 ft | 102 kts | 255° |
| 2026-04-21 14:28 | 38.75326 | -9.16451 | 1390 ft | 93 kts | 258° |
| 2026-04-21 14:28 | 38.75151 | -9.17258 | 1596 ft | 94 kts | 255° |
| 2026-04-21 14:29 | 38.74944 | -9.18051 | 1773 ft | 93 kts | 245° |
| 2026-04-21 14:29 | 38.74614 | -9.18768 | 1864 ft | 98 kts | 242° |
| 2026-04-21 14:29 | 38.74262 | -9.19566 | 1913 ft | 103 kts | 246° |
| 2026-04-21 14:29 | 38.74001 | -9.20433 | 1971 ft | 104 kts | 255° |
| 2026-04-21 14:30 | 38.73759 | -9.21318 | 1950 ft | 107 kts | 248° |
| 2026-04-21 14:30 | 38.73431 | -9.22174 | 1927 ft | 110 kts | 248° |
| 2026-04-21 14:30 | 38.73123 | -9.23046 | 1943 ft | 107 kts | 249° |
| 2026-04-21 14:30 | 38.72838 | -9.23962 | 1873 ft | 111 kts | 252° |
| 2026-04-21 14:31 | 38.72519 | -9.24848 | 1835 ft | 106 kts | 243° |
| 2026-04-21 14:31 | 38.72173 | -9.25647 | 1843 ft | 101 kts | 238° |
| 2026-04-21 14:31 | 38.71779 | -9.26402 | 1769 ft | 104 kts | 242° |
| 2026-04-21 14:31 | 38.71426 | -9.27229 | 1677 ft | 106 kts | 246° |
| 2026-04-21 14:32 | 38.71123 | -9.28128 | 1474 ft | 109 kts | 253° |
| 2026-04-21 14:32 | 38.70878 | -9.29009 | 1392 ft | 106 kts | 255° |
| 2026-04-21 14:32 | 38.70712 | -9.29931 | 1252 ft | 106 kts | 267° |
| 2026-04-21 14:32 | 38.70925 | -9.30818 | 1130 ft | 115 kts | 318° |
| 2026-04-21 14:33 | 38.71349 | -9.31527 | 944 ft | 106 kts | 266° |
| 2026-04-21 14:33 | 38.71314 | -9.32399 | 1094 ft | 95 kts | 271° |
| 2026-04-21 14:33 | 38.71369 | -9.33280 | 1186 ft | 101 kts | 275° |
| 2026-04-21 14:33 | 38.71408 | -9.34191 | 1203 ft | 108 kts | 275° |
| 2026-04-21 14:34 | 38.71483 | -9.35183 | 1095 ft | 108 kts | 280° |
| 2026-04-21 14:34 | 38.71787 | -9.36017 | 1128 ft | 110 kts | 320° |
| 2026-04-21 14:34 | 38.72504 | -9.36440 | 1110 ft | 114 kts | 347° |
| 2026-04-21 14:34 | 38.73267 | -9.36671 | 1075 ft | 112 kts | 358° |
| 2026-04-21 14:35 | 38.74000 | -9.36807 | 1085 ft | 103 kts | 0° |
| 2026-04-21 14:35 | 38.74585 | -9.36641 | 1161 ft | 82 kts | 73° |
| 2026-04-21 14:35 | 38.74620 | -9.36064 | 1145 ft | 53 kts | 182° |
| 2026-04-21 14:35 | 38.74263 | -9.36138 | 916 ft | 60 kts | 214° |
| 2026-04-21 14:36 | 38.73939 | -9.36046 | 827 ft | 50 kts | 173° |
| 2026-04-21 14:36 | 38.73627 | -9.35918 | 648 ft | 42 kts | 184° |
| 2026-04-21 14:36 | 38.73375 | -9.35826 | 487 ft | 29 kts | 175° |
| 2026-04-21 14:36 | 38.73206 | -9.35773 | 410 ft | 22 kts | 171° |
| 2026-04-21 14:37 | 38.73079 | -9.35725 | 371 ft | 17 kts | 171° |
| 2026-04-21 14:37 | 38.72960 | -9.35684 | 362 ft | 18 kts | 168° |
| 2026-04-21 14:37 | 38.72819 | -9.35631 | 349 ft | 21 kts | 168° |
| 2026-04-21 14:37 | 38.72673 | -9.35579 | 348 ft | 20 kts | 168° |
| 2026-04-21 14:38 | 38.72576 | -9.35544 | 337 ft | 10 kts | 172° |
| 2026-04-21 14:38 | 38.72548 | -9.35547 | 337 ft | 5 kts | 213° |
| 2026-04-21 14:38 | 38.72536 | -9.35590 | 332 ft | 3 kts | 234° |
| 2026-04-21 14:38 | 38.72527 | -9.35633 | 349 ft | 7 kts | 314° |
| 2026-04-21 14:39 | 38.72575 | -9.35655 | 334 ft | 5 kts | 342° |
| 2026-04-21 14:39 | 38.72604 | -9.35666 | 327 ft | 1 kts | 352° |
| 2026-04-21 14:39 | 38.72605 | -9.35666 | 337 ft | 2 kts | 341° |
| 2026-04-21 14:39 | 38.72607 | -9.35668 | 323 ft | 0 kts | 343° |